Time;durP1;ratioP1;P1;durP2;ratioP2;P2;SDS_P1;SDS_P2;PMS_P1;PMS_P2;Temp;Humidity;BMP_temperature;BMP_pressure;BME280_temperature;BME280_humidity;BME280_pressure;Samples;Min_cycle;Max_cycle;Signal;HPM_P1;HPM_P2
2021/12/08 00:00:53;;;;;;;2.17;1.83;;;16.30;42.70;;;;;;5086933;28;47124;-20
2021/12/08 00:03:19;;;;;;;3.58;1.75;;;16.30;42.90;;;;;;5086855;28;48012;-19
2021/12/08 00:05:48;;;;;;;2.42;1.90;;;16.20;42.70;;;;;;5086327;27;47191;-17
2021/12/08 00:08:15;;;;;;;2.53;1.90;;;16.20;42.80;;;;;;5086892;27;47040;-20
2021/12/08 00:13:01;;;;;;;2.08;1.88;;;16.20;42.90;;;;;;5086650;28;46951;-16
2021/12/08 00:13:39;;;;;;;2.00;1.80;;;16.20;42.80;;;;;;5086393;28;48042;-20
2021/12/08 00:16:08;;;;;;;2.42;1.90;;;16.20;43.00;;;;;;5086195;28;47098;-16
2021/12/08 00:18:34;;;;;;;2.38;1.88;;;16.20;43.00;;;;;;5086555;28;47035;-16
2021/12/08 00:21:04;;;;;;;1.90;1.80;;;16.10;43.10;;;;;;5086335;28;47175;-19
2021/12/08 00:23:31;;;;;;;2.10;1.70;;;16.20;43.10;;;;;;5086499;28;48087;-20
2021/12/08 00:25:58;;;;;;;2.22;1.88;;;16.10;43.10;;;;;;5085929;27;46858;-16
2021/12/08 00:28:25;;;;;;;2.42;1.80;;;16.10;43.10;;;;;;5086555;28;46830;-20
2021/12/08 00:30:52;;;;;;;2.38;1.63;;;16.10;43.20;;;;;;5086154;27;46908;-20
2021/12/08 00:33:19;;;;;;;1.80;1.70;;;16.10;43.20;;;;;;5086276;28;46850;-20
2021/12/08 00:35:48;;;;;;;3.08;1.88;;;16.10;43.20;;;;;;5086115;28;46800;-20
2021/12/08 00:38:17;;;;;;;2.30;1.80;;;16.10;43.20;;;;;;5086236;28;46885;-16
2021/12/08 00:40:44;;;;;;;1.98;1.60;;;16.10;43.20;;;;;;5086344;28;47292;-16
2021/12/08 00:43:11;;;;;;;1.75;1.65;;;16.10;43.30;;;;;;5085986;27;46871;-16
2021/12/08 00:45:38;;;;;;;2.00;1.77;;;16.10;43.40;;;;;;5085602;28;46743;-16
2021/12/08 00:48:05;;;;;;;2.45;1.70;;;16.00;43.40;;;;;;5086314;28;47001;-16
2021/12/08 00:50:33;;;;;;;2.35;1.77;;;16.00;43.40;;;;;;5086228;27;47214;-16
2021/12/08 00:52:59;;;;;;;2.13;1.80;;;16.00;43.40;;;;;;5085995;28;48790;-16
2021/12/08 00:55:28;;;;;;;1.80;1.70;;;16.00;43.40;;;;;;5085499;28;46845;-15
2021/12/08 00:57:54;;;;;;;2.85;2.00;;;16.00;43.50;;;;;;5086014;28;46900;-19
2021/12/08 01:00:24;;;;;;;2.05;1.80;;;16.00;43.60;;;;;;5086005;27;47410;-16
2021/12/08 01:02:50;;;;;;;2.53;2.00;;;16.00;43.60;;;;;;5085784;28;48680;-16
2021/12/08 01:05:24;;;;;;;2.03;1.80;;;15.90;43.60;;;;;;5085579;28;47006;-17
2021/12/08 01:07:51;;;;;;;1.98;1.70;;;15.90;43.60;;;;;;5085683;28;46992;-20
2021/12/08 01:10:19;;;;;;;2.67;1.90;;;15.90;43.70;;;;;;5085645;28;46932;-16
2021/12/08 01:12:47;;;;;;;2.28;1.90;;;15.90;43.70;;;;;;5085410;28;48646;-17
2021/12/08 01:15:14;;;;;;;2.20;2.00;;;15.90;43.80;;;;;;5085383;28;46909;-16
2021/12/08 01:17:41;;;;;;;1.88;1.55;;;15.90;43.70;;;;;;5085496;28;46817;-17
2021/12/08 01:20:09;;;;;;;2.33;2.00;;;15.90;43.70;;;;;;5085631;28;46851;-20
2021/12/08 01:22:36;;;;;;;2.63;1.80;;;15.90;43.80;;;;;;5085346;27;47036;-20
2021/12/08 01:25:03;;;;;;;3.35;2.00;;;15.90;43.80;;;;;;5085390;28;46913;-20
2021/12/08 01:27:32;;;;;;;2.30;2.10;;;15.90;43.90;;;;;;5085486;28;46794;-17
2021/12/08 01:30:00;;;;;;;2.15;1.77;;;15.90;44.50;;;;;;5085488;27;46948;-20
2021/12/08 01:32:27;;;;;;;2.13;1.92;;;15.80;43.90;;;;;;5085240;28;48243;-20
2021/12/08 01:34:53;;;;;;;2.30;1.60;;;15.80;43.90;;;;;;5085415;28;46801;-20
2021/12/08 01:37:20;;;;;;;2.17;1.83;;;15.80;43.90;;;;;;5085591;28;46744;-17
2021/12/08 01:39:47;;;;;;;1.75;1.63;;;15.80;43.90;;;;;;5085633;28;46989;-20
2021/12/08 01:42:18;;;;;;;2.38;1.83;;;15.80;43.90;;;;;;5086340;27;48781;-20
2021/12/08 01:47:30;;;;;;;1.67;1.58;;;15.80;44.00;;;;;;5086309;28;46998;-21
2021/12/08 01:49:57;;;;;;;2.28;1.70;;;15.80;44.10;;;;;;5089012;28;47013;-20
2021/12/08 01:52:25;;;;;;;2.08;1.85;;;15.80;44.10;;;;;;5089235;27;48958;-20
2021/12/08 01:54:51;;;;;;;2.28;1.90;;;15.80;44.10;;;;;;5088422;28;46978;-20
2021/12/08 01:57:18;;;;;;;2.75;1.70;;;15.80;44.10;;;;;;5088757;28;46920;-16
2021/12/08 01:59:45;;;;;;;2.72;1.77;;;15.70;44.00;;;;;;5088844;28;47246;-20
2021/12/08 02:02:11;;;;;;;2.53;2.13;;;15.70;44.10;;;;;;5088827;28;47989;-20
2021/12/08 02:04:40;;;;;;;1.95;1.80;;;15.70;44.10;;;;;;5088637;28;46895;-20
2021/12/08 02:07:06;;;;;;;2.00;1.73;;;15.70;44.20;;;;;;5088799;28;46940;-19
2021/12/08 02:09:33;;;;;;;2.05;1.80;;;15.70;44.20;;;;;;5088664;28;47176;-16
2021/12/08 02:12:00;;;;;;;2.05;1.75;;;15.70;44.20;;;;;;5088554;28;46906;-20
2021/12/08 02:14:26;;;;;;;1.98;1.48;;;15.70;44.30;;;;;;5088505;28;46795;-16
2021/12/08 02:16:54;;;;;;;2.30;1.67;;;15.70;44.30;;;;;;5088360;28;47129;-20
2021/12/08 02:19:21;;;;;;;1.90;1.58;;;15.60;44.30;;;;;;5088424;28;47181;-20
2021/12/08 02:21:52;;;;;;;2.53;1.70;;;15.60;44.30;;;;;;5088207;28;46957;-16
2021/12/08 02:24:19;;;;;;;2.10;1.90;;;15.60;44.30;;;;;;5088218;28;47513;-19
2021/12/08 02:26:46;;;;;;;2.13;1.90;;;15.60;44.30;;;;;;5088338;27;46896;-20
2021/12/08 02:29:18;;;;;;;2.22;1.50;;;15.60;44.30;;;;;;5088687;27;46936;-17
2021/12/08 02:31:52;;;;;;;1.58;1.48;;;15.60;44.30;;;;;;5087812;28;47059;-16
2021/12/08 02:47:57;;;;;;;2.22;1.52;;;15.60;44.40;;;;;;5085321;28;47038;-20
2021/12/08 02:50:25;;;;;;;1.77;1.50;;;15.60;44.50;;;;;;5088342;28;47010;-20
2021/12/08 02:52:53;;;;;;;1.70;1.55;;;15.60;44.50;;;;;;5087436;28;47088;-20
2021/12/08 02:55:20;;;;;;;1.70;1.50;;;15.60;44.50;;;;;;5086510;28;47034;-16
2021/12/08 02:57:47;;;;;;;1.77;1.50;;;15.60;44.50;;;;;;5087615;28;46862;-18
2021/12/08 03:00:16;;;;;;;1.75;1.65;;;15.60;44.50;;;;;;5087737;28;46869;-20
2021/12/08 03:02:42;;;;;;;2.08;1.50;;;15.60;44.60;;;;;;5087779;28;46852;-20
2021/12/08 03:05:09;;;;;;;1.45;1.30;;;15.60;44.60;;;;;;5087710;28;47017;-20
2021/12/08 03:07:37;;;;;;;2.42;1.40;;;15.60;44.60;;;;;;5087951;28;46936;-18
2021/12/08 03:10:07;;;;;;;1.40;1.30;;;15.60;44.60;;;;;;5087902;28;46889;-16
2021/12/08 03:12:33;;;;;;;2.78;1.40;;;15.50;44.60;;;;;;5087639;27;47958;-17
2021/12/08 03:15:00;;;;;;;1.75;1.42;;;15.50;44.60;;;;;;5087452;28;46838;-16
2021/12/08 03:17:27;;;;;;;2.00;1.58;;;15.50;44.70;;;;;;5087356;28;46877;-16
2021/12/08 03:19:53;;;;;;;1.30;1.20;;;15.50;44.70;;;;;;5087321;28;46878;-20
2021/12/08 03:22:20;;;;;;;1.70;1.60;;;15.60;44.80;;;;;;5087181;28;48830;-19
2021/12/08 03:24:48;;;;;;;1.67;1.40;;;15.50;44.70;;;;;;5087296;28;46993;-20
2021/12/08 03:27:20;;;;;;;1.50;1.40;;;15.50;44.80;;;;;;5087230;28;47058;-17
2021/12/08 03:29:52;;;;;;;2.25;1.45;;;15.50;44.80;;;;;;5087744;28;46890;-20
2021/12/08 03:32:28;;;;;;;1.60;1.42;;;15.50;44.90;;;;;;5087109;28;47839;-20
2021/12/08 03:34:55;;;;;;;1.40;1.30;;;15.50;44.90;;;;;;5086877;27;46905;-20
2021/12/08 03:37:23;;;;;;;1.40;1.30;;;15.50;44.90;;;;;;5087133;28;46981;-20
2021/12/08 03:39:50;;;;;;;1.63;1.50;;;15.50;45.00;;;;;;5087298;28;47006;-20
2021/12/08 03:42:20;;;;;;;1.38;1.17;;;15.50;45.00;;;;;;5086851;28;48106;-20
2021/12/08 03:44:47;;;;;;;1.30;1.13;;;15.50;45.00;;;;;;5087210;27;46908;-20
2021/12/08 03:47:16;;;;;;;1.10;1.00;;;15.50;45.00;;;;;;5087037;28;46871;-18
2021/12/08 03:49:43;;;;;;;1.60;1.40;;;15.50;45.00;;;;;;5086995;27;47364;-16
2021/12/08 03:52:10;;;;;;;1.38;1.20;;;15.50;45.00;;;;;;5086932;28;49095;-17
2021/12/08 03:54:36;;;;;;;1.30;1.20;;;15.50;45.00;;;;;;5086881;28;46882;-16
2021/12/08 03:57:04;;;;;;;1.60;1.40;;;15.50;45.00;;;;;;5086686;28;46735;-20
2021/12/08 03:59:32;;;;;;;2.20;1.20;;;15.50;45.10;;;;;;5086861;27;46936;-18
2021/12/08 04:01:58;;;;;;;1.48;1.23;;;15.50;45.10;;;;;;5086551;28;48898;-16
2021/12/08 04:04:28;;;;;;;1.45;1.35;;;15.50;45.00;;;;;;5086314;28;46751;-16
2021/12/08 04:06:56;;;;;;;1.20;1.10;;;15.50;45.10;;;;;;5086534;28;46999;-17
2021/12/08 04:09:30;;;;;;;1.25;1.20;;;15.50;45.10;;;;;;5087033;28;46985;-16
2021/12/08 04:11:56;;;;;;;0.93;0.93;;;15.50;45.10;;;;;;5086564;28;47092;-17
2021/12/08 04:14:24;;;;;;;1.30;1.10;;;15.50;45.10;;;;;;5086522;28;46881;-20
2021/12/08 04:16:57;;;;;;;1.40;1.30;;;15.50;45.30;;;;;;5086586;27;46823;-19
2021/12/08 04:19:24;;;;;;;1.30;1.20;;;15.50;45.20;;;;;;5086999;28;47154;-20
2021/12/08 04:21:52;;;;;;;0.90;0.90;;;15.50;45.20;;;;;;5086114;28;47074;-20
2021/12/08 04:24:19;;;;;;;1.20;1.10;;;15.50;45.30;;;;;;5086309;28;46744;-16
2021/12/08 04:26:49;;;;;;;1.00;1.00;;;15.50;45.20;;;;;;5086179;28;47000;-20
2021/12/08 04:29:16;;;;;;;1.00;1.00;;;15.50;45.30;;;;;;5086905;28;47247;-17
2021/12/08 04:31:43;;;;;;;0.80;0.80;;;15.50;45.30;;;;;;5085877;28;48059;-20
2021/12/08 04:34:16;;;;;;;1.20;1.10;;;15.50;45.30;;;;;;5086206;28;46973;-20
2021/12/08 04:36:46;;;;;;;0.90;0.90;;;15.50;45.40;;;;;;5085699;28;46790;-20
2021/12/08 04:39:17;;;;;;;1.30;1.20;;;15.50;45.30;;;;;;5086290;27;46894;-19
2021/12/08 04:41:49;;;;;;;1.83;1.20;;;15.50;45.30;;;;;;5085562;28;48089;-20
2021/12/08 04:44:25;;;;;;;0.88;0.88;;;15.50;45.30;;;;;;5086263;28;46968;-20
2021/12/08 04:47:18;;;;;;;1.13;0.90;;;15.50;45.30;;;;;;5086075;28;46993;-20
2021/12/08 04:50:20;;;;;;;0.98;0.93;;;15.50;45.30;;;;;;5086062;27;46951;-20
2021/12/08 04:52:56;;;;;;;1.20;1.10;;;15.50;45.30;;;;;;5086154;27;47847;-20
2021/12/08 05:01:15;;;;;;;1.15;1.05;;;15.50;45.30;;;;;;5090451;27;46998;-20
2021/12/08 05:04:02;;;;;;;1.13;0.90;;;15.50;45.40;;;;;;5105839;27;48805;-20
2021/12/08 05:06:39;;;;;;;1.33;1.00;;;15.50;45.30;;;;;;5105906;27;46891;-20
2021/12/08 05:09:08;;;;;;;1.23;1.10;;;15.50;45.40;;;;;;5106441;27;46852;-19
2021/12/08 05:11:37;;;;;;;0.82;0.82;;;15.50;45.40;;;;;;5106458;27;47068;-19
2021/12/08 05:14:07;;;;;;;1.33;1.10;;;15.50;45.40;;;;;;5088885;27;48249;-19
2021/12/08 05:16:34;;;;;;;0.80;0.80;;;15.40;45.40;;;;;;5083835;28;47044;-19
2021/12/08 05:19:02;;;;;;;0.85;0.85;;;15.50;45.40;;;;;;5085243;28;46744;-15
2021/12/08 05:21:32;;;;;;;1.17;0.90;;;15.50;45.40;;;;;;5085472;28;47270;-15
2021/12/08 05:24:04;;;;;;;0.90;0.90;;;15.50;45.40;;;;;;5085286;28;49928;-16
2021/12/08 05:26:33;;;;;;;0.90;0.90;;;15.40;45.40;;;;;;5085167;28;46914;-15
2021/12/08 05:29:01;;;;;;;0.80;0.80;;;15.40;45.40;;;;;;5085386;28;46938;-16
2021/12/08 05:31:29;;;;;;;0.80;0.80;;;15.40;45.50;;;;;;5085525;28;47131;-16
2021/12/08 05:33:56;;;;;;;0.95;0.88;;;15.40;45.50;;;;;;5085446;27;47950;-17
2021/12/08 05:36:22;;;;;;;0.70;0.70;;;15.40;45.50;;;;;;5085250;28;46937;-16
2021/12/08 05:38:51;;;;;;;0.77;0.68;;;15.40;45.50;;;;;;5085622;28;46983;-17
2021/12/08 05:41:21;;;;;;;0.70;0.70;;;15.40;45.50;;;;;;5085529;27;47046;-20
2021/12/08 05:43:48;;;;;;;1.10;1.00;;;15.40;45.60;;;;;;5085413;28;48081;-17
2021/12/08 05:46:15;;;;;;;1.02;0.80;;;15.40;45.60;;;;;;5085071;27;46884;-20
2021/12/08 05:48:42;;;;;;;1.20;1.00;;;15.40;45.70;;;;;;5085374;28;46987;-20
2021/12/08 05:51:10;;;;;;;1.23;0.93;;;15.40;45.80;;;;;;5085354;28;47100;-20
2021/12/08 05:53:38;;;;;;;0.73;0.73;;;15.40;45.80;;;;;;5085284;28;48779;-16
2021/12/08 05:56:07;;;;;;;0.98;0.90;;;15.40;45.80;;;;;;5084820;28;47497;-19
2021/12/08 05:58:34;;;;;;;0.82;0.80;;;15.40;45.80;;;;;;5085360;28;46803;-17
2021/12/08 06:01:04;;;;;;;0.85;0.85;;;15.40;45.80;;;;;;5085341;28;47254;-16
2021/12/08 06:03:31;;;;;;;0.80;0.80;;;15.40;45.80;;;;;;5084900;28;48086;-20
2021/12/08 06:05:58;;;;;;;0.85;0.70;;;15.40;45.90;;;;;;5085097;28;47016;-20
2021/12/08 06:08:27;;;;;;;0.70;0.70;;;15.40;45.90;;;;;;5084854;28;46793;-20
2021/12/08 06:10:54;;;;;;;0.95;0.80;;;15.40;45.90;;;;;;5085308;28;47148;-21
2021/12/08 06:13:22;;;;;;;1.00;0.90;;;15.40;46.00;;;;;;5084729;28;49050;-18
2021/12/08 06:15:49;;;;;;;0.50;0.50;;;15.40;45.90;;;;;;5084893;28;46915;-20
2021/12/08 06:18:19;;;;;;;1.05;0.73;;;15.40;46.00;;;;;;5085008;28;46949;-20
2021/12/08 06:20:46;;;;;;;0.60;0.60;;;15.40;46.00;;;;;;5084769;28;47240;-19
2021/12/08 06:23:12;;;;;;;0.80;0.80;;;15.40;46.10;;;;;;5084811;28;48139;-16
2021/12/08 06:25:39;;;;;;;0.60;0.60;;;15.40;46.00;;;;;;5084525;28;47190;-17
2021/12/08 06:28:07;;;;;;;0.70;0.70;;;15.40;46.00;;;;;;5085723;27;47012;-18
2021/12/08 06:30:37;;;;;;;0.70;0.70;;;15.40;46.00;;;;;;5088465;28;47111;-20
2021/12/08 06:33:04;;;;;;;0.70;0.70;;;15.40;46.10;;;;;;5088248;28;47877;-17
2021/12/08 06:35:33;;;;;;;0.70;0.70;;;15.40;46.00;;;;;;5087956;28;47114;-17
2021/12/08 06:38:00;;;;;;;0.90;0.70;;;15.40;46.10;;;;;;5088221;28;47005;-17
2021/12/08 06:40:29;;;;;;;0.80;0.80;;;15.40;46.10;;;;;;5087864;28;46932;-16
2021/12/08 06:42:59;;;;;;;0.60;0.60;;;15.40;46.10;;;;;;5088134;28;48968;-16
2021/12/08 06:45:28;;;;;;;0.90;0.90;;;15.40;46.20;;;;;;5087744;28;46735;-20
2021/12/08 06:47:56;;;;;;;0.70;0.70;;;15.40;46.20;;;;;;5088256;28;47193;-16
2021/12/08 06:50:26;;;;;;;0.85;0.85;;;15.30;46.10;;;;;;5087739;28;47229;-15
2021/12/08 06:52:53;;;;;;;0.60;0.60;;;15.30;46.10;;;;;;5087904;28;48103;-21
2021/12/08 06:55:20;;;;;;;0.68;0.68;;;15.30;46.20;;;;;;5093204;27;46806;-16
2021/12/08 06:57:49;;;;;;;0.50;0.50;;;15.30;46.20;;;;;;5086947;28;47001;-20
2021/12/08 07:00:22;;;;;;;0.80;0.80;;;15.30;46.30;;;;;;5086640;28;47159;-20
2021/12/08 07:03:02;;;;;;;0.68;0.65;;;15.30;46.30;;;;;;5086362;28;49346;-20
2021/12/08 07:05:53;;;;;;;0.70;0.70;;;15.30;46.30;;;;;;5087293;28;46866;-20
2021/12/08 07:08:20;;;;;;;0.70;0.70;;;15.30;46.30;;;;;;5086218;27;46932;-17
2021/12/08 07:10:47;;;;;;;0.70;0.70;;;15.30;46.40;;;;;;5104450;27;47470;-16
2021/12/08 07:13:16;;;;;;;0.70;0.70;;;15.30;46.40;;;;;;5106577;27;48073;-17
2021/12/08 07:15:45;;;;;;;0.73;0.60;;;15.30;46.40;;;;;;5107499;27;47096;-16
2021/12/08 07:18:15;;;;;;;0.55;0.55;;;15.30;46.40;;;;;;5107920;27;46814;-20
2021/12/08 07:20:46;;;;;;;0.68;0.68;;;15.30;46.50;;;;;;5107614;27;47013;-20
2021/12/08 07:23:15;;;;;;;0.80;0.70;;;15.30;46.50;;;;;;5107667;27;47952;-20
2021/12/08 07:25:42;;;;;;;1.10;0.70;;;15.30;46.50;;;;;;5107808;27;47425;-16
2021/12/08 07:28:09;;;;;;;0.60;0.60;;;15.30;46.50;;;;;;5107727;27;46915;-17
2021/12/08 07:30:37;;;;;;;0.60;0.60;;;15.30;46.50;;;;;;5108077;27;47315;-17
2021/12/08 07:33:04;;;;;;;0.50;0.50;;;15.30;46.50;;;;;;5107544;27;48122;-17
2021/12/08 07:35:32;;;;;;;0.47;0.47;;;15.30;46.50;;;;;;5107641;27;46833;-16
2021/12/08 07:38:00;;;;;;;0.57;0.55;;;15.30;46.50;;;;;;5107768;27;46805;-17
2021/12/08 07:40:29;;;;;;;0.45;0.45;;;15.30;46.60;;;;;;5106705;27;47024;-20
2021/12/08 07:42:57;;;;;;;0.70;0.70;;;15.30;46.60;;;;;;5107763;27;48882;-20
2021/12/08 07:45:25;;;;;;;0.80;0.80;;;15.30;46.70;;;;;;5107303;27;46909;-19
2021/12/08 07:47:53;;;;;;;0.57;0.57;;;15.30;46.70;;;;;;5107699;27;46777;-20
2021/12/08 07:50:21;;;;;;;0.80;0.80;;;15.30;46.70;;;;;;5107717;27;47230;-20
2021/12/08 07:52:48;;;;;;;0.80;0.73;;;15.30;46.70;;;;;;5107356;27;49338;-20
2021/12/08 07:55:20;;;;;;;0.98;0.70;;;15.30;46.70;;;;;;5107040;27;46975;-20
2021/12/08 07:57:46;;;;;;;0.60;0.60;;;15.30;46.70;;;;;;5107656;27;47155;-16
2021/12/08 08:00:17;;;;;;;0.65;0.65;;;15.30;46.70;;;;;;5107334;27;46888;-16
2021/12/08 08:02:44;;;;;;;0.60;0.43;;;15.30;46.70;;;;;;5107240;27;46855;-17
2021/12/08 08:05:11;;;;;;;0.95;0.80;;;15.30;47.30;;;;;;5106856;27;46944;-16
2021/12/08 08:07:40;;;;;;;0.90;0.65;;;15.30;46.70;;;;;;5106976;27;46936;-20
2021/12/08 08:10:13;;;;;;;0.50;0.50;;;15.30;46.80;;;;;;5106875;27;47078;-16
2021/12/08 08:12:43;;;;;;;0.60;0.60;;;15.30;46.80;;;;;;5106866;27;49024;-19
2021/12/08 08:15:11;;;;;;;0.50;0.50;;;15.30;46.80;;;;;;5107080;27;46826;-20
2021/12/08 08:17:43;;;;;;;1.35;0.70;;;15.30;46.80;;;;;;5106147;27;46876;-16
2021/12/08 08:20:11;;;;;;;0.50;0.50;;;15.30;46.80;;;;;;5107394;27;46989;-20
2021/12/08 08:22:38;;;;;;;0.70;0.70;;;15.30;46.80;;;;;;5106902;27;46897;-20
2021/12/08 08:25:07;;;;;;;0.80;0.60;;;15.30;46.90;;;;;;5106808;27;47042;-16
2021/12/08 08:27:33;;;;;;;0.52;0.52;;;15.20;46.90;;;;;;5106903;27;46896;-16
2021/12/08 08:30:02;;;;;;;0.52;0.52;;;15.20;46.90;;;;;;5105697;27;47269;-16
2021/12/08 08:32:33;;;;;;;0.50;0.50;;;15.20;46.90;;;;;;5106616;27;47863;-16
2021/12/08 08:35:04;;;;;;;0.70;0.70;;;15.20;46.90;;;;;;5106401;27;46798;-17
2021/12/08 08:37:30;;;;;;;1.05;0.70;;;15.30;46.90;;;;;;5106950;27;46995;-16
2021/12/08 08:40:00;;;;;;;0.60;0.60;;;15.30;46.90;;;;;;5106727;27;47254;-20
2021/12/08 08:42:28;;;;;;;0.68;0.65;;;15.30;47.50;;;;;;5106700;27;48019;-16
2021/12/08 08:44:58;;;;;;;0.50;0.50;;;15.30;46.90;;;;;;5106581;27;46876;-20
2021/12/08 08:47:28;;;;;;;1.10;0.75;;;15.30;47.00;;;;;;5106349;27;47023;-20
2021/12/08 08:49:55;;;;;;;0.70;0.70;;;15.20;47.00;;;;;;5106436;27;47047;-16
2021/12/08 08:52:24;;;;;;;0.80;0.60;;;15.20;47.00;;;;;;5103387;27;49060;-16
2021/12/08 08:54:53;;;;;;;0.63;0.60;;;15.20;47.00;;;;;;5104210;27;47049;-16
2021/12/08 08:57:21;;;;;;;0.60;0.60;;;15.20;46.90;;;;;;5106323;27;46893;-20
2021/12/08 08:59:49;;;;;;;0.77;0.70;;;15.20;47.10;;;;;;5106515;27;46872;-16
2021/12/08 09:02:18;;;;;;;0.60;0.60;;;15.20;47.00;;;;;;5105957;27;47885;-16
2021/12/08 09:04:48;;;;;;;0.65;0.50;;;15.20;47.00;;;;;;5106224;27;47493;-16
2021/12/08 09:07:18;;;;;;;1.13;0.63;;;15.20;47.10;;;;;;5106522;27;46890;-19
2021/12/08 09:09:46;;;;;;;0.98;0.77;;;15.20;47.10;;;;;;5106457;27;47055;-20
2021/12/08 09:12:16;;;;;;;0.60;0.60;;;15.30;47.10;;;;;;5105906;27;49008;-16
2021/12/08 09:14:44;;;;;;;1.17;0.90;;;15.40;47.10;;;;;;5105971;27;46946;-19
2021/12/08 09:17:13;;;;;;;0.73;0.70;;;15.60;47.10;;;;;;5105347;27;46999;-17
2021/12/08 09:19:42;;;;;;;0.52;0.50;;;15.80;46.90;;;;;;5105172;27;47312;-16
2021/12/08 09:22:12;;;;;;;0.60;0.60;;;16.00;46.60;;;;;;5106077;27;48806;-17
2021/12/08 09:24:45;;;;;;;2.15;0.68;;;16.20;46.20;;;;;;5106262;27;46900;-16
2021/12/08 09:27:12;;;;;;;0.55;0.55;;;16.40;45.80;;;;;;5105992;27;46858;-20
2021/12/08 09:29:44;;;;;;;1.13;0.60;;;16.50;45.40;;;;;;5106009;27;47229;-17
2021/12/08 09:32:12;;;;;;;1.75;0.60;;;16.70;45.10;;;;;;5105625;27;48253;-16
2021/12/08 09:34:40;;;;;;;0.73;0.70;;;16.80;44.90;;;;;;5106077;27;47525;-16
2021/12/08 09:37:08;;;;;;;1.25;0.73;;;17.00;44.60;;;;;;5106082;27;46826;-16
2021/12/08 09:39:38;;;;;;;1.80;0.70;;;17.10;44.40;;;;;;5105891;27;47024;-17
2021/12/08 09:42:08;;;;;;;0.50;0.50;;;17.20;44.20;;;;;;5099033;27;47793;-16
2021/12/08 09:44:38;;;;;;;0.55;0.55;;;17.20;44.10;;;;;;5103457;27;47376;-18
2021/12/08 09:47:05;;;;;;;1.13;0.73;;;17.30;44.00;;;;;;5103839;27;46829;-17
2021/12/08 09:49:33;;;;;;;1.02;0.75;;;17.30;43.90;;;;;;5104307;27;47110;-16
2021/12/08 09:52:00;;;;;;;3.13;0.63;;;17.40;44.00;;;;;;5103555;27;48155;-16
2021/12/08 09:54:27;;;;;;;1.02;0.63;;;17.40;43.90;;;;;;5103629;27;46951;-17
2021/12/08 09:56:55;;;;;;;0.60;0.60;;;17.40;43.90;;;;;;5104449;27;47037;-20
2021/12/08 09:59:23;;;;;;;1.27;0.60;;;17.40;43.90;;;;;;5105957;27;46953;-22
2021/12/08 10:01:51;;;;;;;1.70;0.60;;;17.40;43.90;;;;;;5105236;27;47744;-21
2021/12/08 10:04:18;;;;;;;0.63;0.60;;;17.40;44.00;;;;;;5108189;27;47142;-20
2021/12/08 10:06:49;;;;;;;4.00;0.70;;;17.40;44.00;;;;;;5108903;27;46953;-21
2021/12/08 10:09:16;;;;;;;0.98;0.68;;;17.40;44.00;;;;;;5109468;27;47032;-21
2021/12/08 10:11:43;;;;;;;1.27;0.80;;;17.40;44.10;;;;;;5108996;27;47101;-21
2021/12/08 10:14:11;;;;;;;4.35;0.90;;;17.30;44.10;;;;;;5109082;27;47265;-21
2021/12/08 10:16:38;;;;;;;0.85;0.63;;;17.30;44.10;;;;;;5108908;27;46791;-20
2021/12/08 10:19:05;;;;;;;1.17;0.70;;;17.30;44.20;;;;;;5109133;27;47273;-21
2021/12/08 10:21:33;;;;;;;1.42;0.82;;;17.30;44.30;;;;;;5108664;27;46925;-20
2021/12/08 10:24:00;;;;;;;1.10;0.70;;;17.30;44.30;;;;;;5108895;27;46825;-20
2021/12/08 10:26:27;;;;;;;2.58;0.95;;;17.20;44.40;;;;;;5108533;27;46907;-20
2021/12/08 10:28:54;;;;;;;1.75;0.90;;;17.20;44.40;;;;;;5108856;27;46910;-20
2021/12/08 10:31:27;;;;;;;1.98;0.70;;;17.20;44.50;;;;;;5108362;27;47941;-17
2021/12/08 10:34:03;;;;;;;3.28;0.90;;;17.20;44.50;;;;;;5108622;27;47608;-17
2021/12/08 10:39:22;;;;;;;1.42;0.80;;;17.20;44.70;;;;;;5108190;27;47271;-17
2021/12/08 10:41:52;;;;;;;1.00;0.90;;;17.20;44.80;;;;;;5107278;27;47431;-17
2021/12/08 10:44:22;;;;;;;0.70;0.70;;;17.10;44.80;;;;;;5108668;27;46740;-17
2021/12/08 10:46:50;;;;;;;4.32;0.93;;;17.10;44.90;;;;;;5108384;27;46901;-16
2021/12/08 10:49:23;;;;;;;0.88;0.77;;;17.10;45.00;;;;;;5108527;27;46919;-20
2021/12/08 10:54:36;;;;;;;0.90;0.88;;;17.00;45.20;;;;;;5105599;27;46978;-21
2021/12/08 10:57:04;;;;;;;1.17;0.70;;;17.00;45.20;;;;;;5108376;27;46905;-21
2021/12/08 10:59:52;;;;;;;3.40;0.80;;;17.00;45.30;;;;;;5102025;27;47309;-21
2021/12/08 11:02:39;;;;;;;1.42;0.82;;;16.90;45.40;;;;;;5106337;27;48122;-21
2021/12/08 11:05:07;;;;;;;1.25;0.70;;;16.90;45.40;;;;;;5106342;27;47042;-21
2021/12/08 11:07:34;;;;;;;1.05;0.90;;;16.90;45.50;;;;;;5107552;27;46806;-21
2021/12/08 11:10:01;;;;;;;1.67;1.00;;;16.90;45.60;;;;;;5107674;27;47263;-21
2021/12/08 11:12:39;;;;;;;3.45;0.80;;;16.90;45.70;;;;;;5107567;27;48144;-20
2021/12/08 11:15:10;;;;;;;1.10;0.80;;;16.80;45.70;;;;;;5106451;27;47057;-20
2021/12/08 11:17:39;;;;;;;2.47;0.90;;;16.80;45.80;;;;;;5107059;27;46883;-20
2021/12/08 11:20:17;;;;;;;3.75;0.85;;;16.80;45.80;;;;;;5107823;27;47121;-20
2021/12/08 11:22:44;;;;;;;2.78;0.93;;;16.80;45.90;;;;;;5107560;27;48851;-21
2021/12/08 11:25:21;;;;;;;1.88;0.98;;;16.70;45.90;;;;;;5107743;27;46885;-20
2021/12/08 11:27:48;;;;;;;1.67;0.90;;;16.70;46.00;;;;;;5107958;27;46791;-20
2021/12/08 11:30:15;;;;;;;2.67;1.10;;;16.70;46.10;;;;;;5108246;27;47245;-19
2021/12/08 11:32:43;;;;;;;2.90;0.88;;;16.70;46.20;;;;;;5107499;27;48600;-21
2021/12/08 11:35:19;;;;;;;2.28;0.88;;;16.70;46.30;;;;;;5092236;27;46913;-20
2021/12/08 11:37:45;;;;;;;1.30;0.90;;;16.70;46.20;;;;;;5087391;28;46797;-17
2021/12/08 11:40:16;;;;;;;1.95;1.00;;;16.60;46.20;;;;;;5086925;28;46830;-16
2021/12/08 11:42:43;;;;;;;2.17;0.90;;;16.60;46.30;;;;;;5086753;28;48712;-17
2021/12/08 11:45:12;;;;;;;1.48;0.73;;;16.60;46.30;;;;;;5087018;28;46791;-17
2021/12/08 11:47:40;;;;;;;1.27;0.90;;;16.60;46.40;;;;;;5086983;28;46877;-17
2021/12/08 11:50:10;;;;;;;2.97;1.00;;;16.60;46.50;;;;;;5086765;28;46846;-17
2021/12/08 11:52:37;;;;;;;3.00;1.08;;;16.60;46.60;;;;;;5086867;28;49046;-17
2021/12/08 11:55:06;;;;;;;2.72;1.08;;;16.60;46.60;;;;;;5086371;28;46748;-16
2021/12/08 11:57:36;;;;;;;3.95;0.85;;;16.60;46.60;;;;;;5086816;28;46795;-16
2021/12/08 12:00:07;;;;;;;5.25;1.20;;;16.60;46.60;;;;;;5086560;28;46903;-16
2021/12/08 12:02:36;;;;;;;5.22;1.00;;;16.50;46.50;;;;;;5086495;28;47846;-21
2021/12/08 12:05:05;;;;;;;1.80;1.23;;;16.50;46.70;;;;;;5086398;28;46764;-17
2021/12/08 12:07:33;;;;;;;4.78;1.00;;;16.50;46.80;;;;;;5086584;28;46878;-20
2021/12/08 12:09:59;;;;;;;2.92;1.08;;;16.50;47.00;;;;;;5086862;28;46912;-20
2021/12/08 12:12:26;;;;;;;3.78;1.15;;;16.50;47.00;;;;;;5086663;28;48260;-20
2021/12/08 12:14:53;;;;;;;1.17;1.08;;;16.50;47.00;;;;;;5086495;28;47252;-20
2021/12/08 12:17:20;;;;;;;3.03;1.45;;;16.50;47.10;;;;;;5086288;28;46942;-21
2021/12/08 12:19:51;;;;;;;3.60;1.25;;;16.50;47.10;;;;;;5086205;28;46932;-21
2021/12/08 12:22:24;;;;;;;2.55;0.80;;;16.50;47.00;;;;;;5086339;28;48162;-21
2021/12/08 12:25:04;;;;;;;2.47;0.88;;;16.50;46.90;;;;;;5086279;28;46822;-20
2021/12/08 12:27:38;;;;;;;2.95;1.13;;;16.40;46.80;;;;;;5085998;27;47111;-20
2021/12/08 12:30:10;;;;;;;3.58;1.17;;;16.40;46.70;;;;;;5086323;27;46993;-20
2021/12/08 12:32:39;;;;;;;3.58;0.90;;;16.40;46.90;;;;;;5086289;27;46909;-20
2021/12/08 12:35:13;;;;;;;8.15;1.55;;;16.40;46.90;;;;;;5085892;28;47024;-20
2021/12/08 12:37:40;;;;;;;4.25;0.98;;;16.40;46.80;;;;;;5086062;28;47223;-20
2021/12/08 12:40:10;;;;;;;5.75;1.23;;;16.40;46.80;;;;;;5086126;28;46954;-17
2021/12/08 12:42:50;;;;;;;4.55;1.00;;;16.40;46.90;;;;;;5086487;27;49028;-16
2021/12/08 12:45:17;;;;;;;5.00;1.00;;;16.40;46.90;;;;;;5085748;28;46937;-17
2021/12/08 12:47:44;;;;;;;3.72;1.13;;;16.40;47.00;;;;;;5086301;28;46940;-16
2021/12/08 12:50:21;;;;;;;4.85;1.30;;;16.40;47.30;;;;;;5086230;28;47208;-20
2021/12/08 12:52:50;;;;;;;9.45;1.50;;;16.40;47.40;;;;;;5086183;28;49116;-20
2021/12/08 12:55:20;;;;;;;7.32;1.17;;;16.40;47.30;;;;;;5085361;27;47518;-21
2021/12/08 12:58:13;;;;;;;4.57;1.20;;;16.30;47.20;;;;;;5084752;27;47007;-20
2021/12/08 13:00:41;;;;;;;2.83;1.08;;;16.30;47.20;;;;;;5085803;28;47064;-16
2021/12/08 13:03:07;;;;;;;6.22;1.60;;;16.40;47.10;;;;;;5085952;28;49063;-17
2021/12/08 13:05:46;;;;;;;2.65;1.00;;;16.50;47.30;;;;;;5085510;28;46963;-17
2021/12/08 13:08:13;;;;;;;12.10;2.55;;;16.70;47.70;;;;;;5086002;28;46890;-20
2021/12/08 13:10:42;;;;;;;7.03;1.17;;;16.80;47.60;;;;;;5085913;28;47337;-17
2021/12/08 13:13:10;;;;;;;9.85;1.40;;;17.00;47.40;;;;;;5085554;28;48109;-21
2021/12/08 13:15:38;;;;;;;6.38;1.40;;;17.10;47.30;;;;;;5085577;28;46963;-18
2021/12/08 13:18:05;;;;;;;7.15;1.60;;;17.30;47.00;;;;;;5085553;27;46843;-17
2021/12/08 13:20:34;;;;;;;8.05;1.30;;;17.30;46.70;;;;;;5085753;28;46936;-16
2021/12/08 13:23:02;;;;;;;3.63;1.20;;;17.40;46.50;;;;;;5084784;28;47028;-17
2021/12/08 13:25:56;;;;;;;5.68;1.50;;;17.40;46.50;;;;;;5084845;27;46908;-17